Address 0x7a8ce33d998e64a8b88d0e43d28c6d4a63c77f85 14

Txn Hash Method
Block
From
To
Value [Txn Fee]
0x6380d111ecd45162e1320e1a22d46303799f08de3f9ec2c922dcecc5ceefff36Safe Transfer Fr...233343512021-12-31 0:08:57274 days 11 hrs ago0x7a8ce33d998e64a8b88d0e43d28c6d4a63c77f85OUT 0x2953399124f0cbb46d2cbacd8a89cf05999749630 MATIC0.000253605 3.000000001
0x369f0a589189dd8f26c6eb7d2cf330f310e93b8ed4cf623f2e01561e6d5a6956Approve231878992021-12-27 10:52:14278 days 1 hr ago0x7a8ce33d998e64a8b88d0e43d28c6d4a63c77f85OUT 0xa6fa4fb5f76172d178d61b04b0ecd319c5d1c0aa0 MATIC0.00019527 3.75000001
0xb8fd38c607bf3cb802978776e3bab611ad086f45a17784d6fdbf27ac706e7c5eApprove221076082021-11-30 19:06:07304 days 16 hrs ago0x7a8ce33d998e64a8b88d0e43d28c6d4a63c77f85OUT 0xa325f1b1ebb748715dfbbaf62e0c6677e137f45d0 MATIC0.00018775053.5
0x5440d3def718a1788b0ec1cdf57019472dfcfcc3a3af775e1a64ccbb4a589521Stake ETH221075622021-11-30 19:03:49304 days 16 hrs ago0x7a8ce33d998e64a8b88d0e43d28c6d4a63c77f85OUT 0xa7eedddbc51fa82c8bd2c5e7b07878fc30b0f19f1 MATIC0.0005704513.5
0xdef32a9947d47fc894f13957dc0c6e6e2d7cc344250d3f0215c3342871380dd6Mint195849492021-09-30 11:53:54366 days 6 mins ago0x7a8ce33d998e64a8b88d0e43d28c6d4a63c77f85OUT 0xaac36c620e2f52aec3eeed2b89a2ea19babb132a0 MATIC0.0001541313
0xc12320595dfc90bb42736f4029bae7b3f6a5fc97a17cda14a64f28f47a466aa2Transfer195842222021-09-30 11:28:56366 days 31 mins ago0xe84d601e5d945031129a83e5602be0cc7f182cf3 IN 0x7a8ce33d998e64a8b88d0e43d28c6d4a63c77f850.1 MATIC0.0006330
0x865582cf377420eec632fa82c1486639d153f55a77eda1e68201f2531e495903Add Liquidity147369322021-06-05 22:09:06482 days 13 hrs ago0x7a8ce33d998e64a8b88d0e43d28c6d4a63c77f85OUT 0xb4b8d4444f89c10c6669747827b48038118876480 MATIC0.01562520
0x5b1503de7cd6d4335eef0c232fbaafc63d96206bd869ca0fb579658931f292f0Approve147369182021-06-05 22:08:38482 days 13 hrs ago0x7a8ce33d998e64a8b88d0e43d28c6d4a63c77f85OUT 0xfa6384fd10a7d88e08c998a32b1ae727aaba56a50 MATIC0.000930620
0x1387b2bebe01c8cf10088a4337007350bb7c8abd5a9b5c97cdfdc507c45e7abdAdd Liquidity147368772021-06-05 22:07:12482 days 13 hrs ago0x7a8ce33d998e64a8b88d0e43d28c6d4a63c77f85OUT 0xb4b8d4444f89c10c6669747827b48038118876480 MATIC0.0107642420
0x37afb3d67480522b81a8669b4f89ed9d9ddba7607b3b7fbd870b61d41091d855Approve147368602021-06-05 22:06:38482 days 13 hrs ago0x7a8ce33d998e64a8b88d0e43d28c6d4a63c77f85OUT 0xbf0f7073f8893ae68a7fe1e208be1dec5590f5ca0 MATIC0.000930620
0x9f74e01b85ba3817f7cf03cb1a66bdb662f5afdb181308b18ed85ad3e2e5bc8dMint And Sell Op...147368332021-06-05 22:05:44482 days 13 hrs ago0x7a8ce33d998e64a8b88d0e43d28c6d4a63c77f85OUT 0xb4b8d4444f89c10c6669747827b48038118876480 MATIC0.0184476420
0xbe669b71bbc3f22629b9cb073f8f1f8936796d404c27f3305484c1ed599402ceTransfer147368142021-06-05 22:05:02482 days 13 hrs ago0xe84d601e5d945031129a83e5602be0cc7f182cf3 IN 0x7a8ce33d998e64a8b88d0e43d28c6d4a63c77f850.1 MATIC0.010542502
0xaef2772f52056b9b0f0f88f3f1fc852f49cdf5cbbf3a30b45f95d0aa91f180a8Mint And Sell Op...147368112021-06-05 22:04:56482 days 13 hrs ago0x7a8ce33d998e64a8b88d0e43d28c6d4a63c77f85OUT 0xb4b8d4444f89c10c6669747827b48038118876480 MATIC0.0180589420
0xcb9bd4433606e25b229d5c594322e12eaf4029c59248da349bc8e72819b05f8aMint And Sell Op...147367582021-06-05 22:03:06482 days 13 hrs ago0x7a8ce33d998e64a8b88d0e43d28c6d4a63c77f85OUT 0xb4b8d4444f89c10c6669747827b48038118876480 MATIC0.0107275420
0x7c1b0168b05ff80013ae4c658f56d72c920cdf3f6ea968e9bd0a46708937e56aTransfer147367382021-06-05 22:02:26482 days 13 hrs ago0xe84d601e5d945031129a83e5602be0cc7f182cf3 IN 0x7a8ce33d998e64a8b88d0e43d28c6d4a63c77f850.1 MATIC0.010542502
0x3321870c876ee91e655a32fb590e39cedf4587052408254dd6b2ec9d6dfa006eBuy Exact Option...147367122021-06-05 22:01:34482 days 13 hrs ago0x7a8ce33d998e64a8b88d0e43d28c6d4a63c77f85OUT 0xb4b8d4444f89c10c6669747827b48038118876480 MATIC0.0170539420
0xacf0db22007d4b84e9cc5ca707a830d7a60df1b65eb215a9f3ce14aededd3eedApprove147366642021-06-05 21:59:54482 days 14 hrs ago0x7a8ce33d998e64a8b88d0e43d28c6d4a63c77f85OUT 0x639cb7b21ee2161df9c882483c9d55c90c20ca3e0 MATIC0.0010328820
0x8d51de168e378c6607fab3abca4a5422dd2bd8eac817f24cbd1392c975740b6bTransfer147366532021-06-05 21:59:32482 days 14 hrs ago0xe84d601e5d945031129a83e5602be0cc7f182cf3 IN 0x7a8ce33d998e64a8b88d0e43d28c6d4a63c77f850.1 MATIC0.010542502
0x81ce2d30eb793a575a1c3f9df435f382f4ae0e66fdc9f771ef90504855f3b096Buy Options With...147366152021-06-05 21:58:12482 days 14 hrs ago0x7a8ce33d998e64a8b88d0e43d28c6d4a63c77f85OUT 0xb4b8d4444f89c10c6669747827b48038118876480 MATIC0.0164031620
0x56355df633961b705c9fbf625ce2b55c131278784c9d7dacd1fd14d746a7ec34Approve147365362021-06-05 21:55:30482 days 14 hrs ago0x7a8ce33d998e64a8b88d0e43d28c6d4a63c77f85OUT 0x2271e3fef9e15046d09e1d78a8ff038c691e9cf90 MATIC0.0010328820
0x4e0a49f1741df38bb699766a35b5f88fda853bf5e2d3aad1fd42926883da0c14Buy Exact Option...147364542021-06-05 21:52:42482 days 14 hrs ago0x7a8ce33d998e64a8b88d0e43d28c6d4a63c77f85OUT 0xb4b8d4444f89c10c6669747827b48038118876480 MATIC0.0097189820
0x83bb7d988cd08015b1594b26d6d88c2f295aabf942cc5341232b7dee58c6e0fdApprove147364392021-06-05 21:52:08482 days 14 hrs ago0x7a8ce33d998e64a8b88d0e43d28c6d4a63c77f85OUT 0x2058a9d7613eee744279e3856ef0eada5fcbaa7e0 MATIC0.0009296620
0xaaca78c02a3f5ce31a6bde8c85a7ee82bc096af5f2119e5d90bc9d43743d70acGet Faucet147363612021-06-05 21:49:28482 days 14 hrs ago0x7a8ce33d998e64a8b88d0e43d28c6d4a63c77f85OUT 0x55c66bff1d33057aef184a7bb68167e8f7bbfd120 MATIC0.0121502420
0x373e38f3077e1a1803b93757f61bf1c4701e03df41f51f8374075cda78c394beTransfer147362482021-06-05 21:45:34482 days 14 hrs ago0xe84d601e5d945031129a83e5602be0cc7f182cf3 IN 0x7a8ce33d998e64a8b88d0e43d28c6d4a63c77f850.1 MATIC0.010542502
[ Download CSV Export 
Latest 3 internal transactions
Parent Txn Hash Block From To Value
0x23bd1844659d3f8b58366a5e551d9f0d4db26fcb33b76d066593097b880dc6f6221076542021-11-30 19:07:43304 days 16 hrs ago 0x7f092e65c688a509737fcd8d0998dd12208f52970x7a8ce33d998e64a8b88d0e43d28c6d4a63c77f851 MATIC
0x405eec61517f5b26d047eea06d828c65870b6376cb7fdc2439a59bfda9f1e1e5221074842021-11-30 18:59:43304 days 17 hrs ago 0xf5de760f2e916647fd766b4ad9e85ff943ce3a2b0x7a8ce33d998e64a8b88d0e43d28c6d4a63c77f851 MATIC
0x672baa7b099352656f8cf43372d23fbd11f1c6ccbceb727a4e3586f84761f09a219444572021-11-26 11:04:13309 days 56 mins ago 0x7f092e65c688a509737fcd8d0998dd12208f52970x7a8ce33d998e64a8b88d0e43d28c6d4a63c77f851 MATIC
[ Download CSV Export 
Loading

Contract Name:
0 MATIC

Compiler Version
0

Optimization Enabled:
0 MATIC

Other Settings:
-NA-
Block Transaction Gas Used Reward
Age Block Fee Address BC Fee Address Voting Power Jailed Incoming
Block Uncle Number Difficulty Gas Used Reward
Loading